sensor_id;sensor_type;location;lat;lon;timestamp;pressure;altitude;pressure_sealevel;temperature
71897;BMP280;59767;51.344;12.362;2023-09-18T00:00:25;164306.97;;;21.80
71897;BMP280;59767;51.344;12.362;2023-09-18T00:03:29;164308.31;;;21.80
71897;BMP280;59767;51.344;12.362;2023-09-18T00:06:33;164305.69;;;21.79
71897;BMP280;59767;51.344;12.362;2023-09-18T00:09:37;164317.50;;;21.84
71897;BMP280;59767;51.344;12.362;2023-09-18T00:12:41;164306.97;;;21.80
71897;BMP280;59767;51.344;12.362;2023-09-18T00:15:46;164304.34;;;21.79
71897;BMP280;59767;51.344;12.362;2023-09-18T00:18:51;164285.97;;;21.72
71897;BMP280;59767;51.344;12.362;2023-09-18T00:21:55;164288.59;;;21.73
71897;BMP280;59767;51.344;12.362;2023-09-18T00:25:00;164276.78;;;21.68
71897;BMP280;59767;51.344;12.362;2023-09-18T00:28:06;164272.81;;;21.67
71897;BMP280;59767;51.344;12.362;2023-09-18T00:31:10;164274.09;;;21.67
71897;BMP280;59767;51.344;12.362;2023-09-18T00:34:14;164249.09;;;21.58
71897;BMP280;59767;51.344;12.362;2023-09-18T00:37:18;164238.63;;;21.54
71897;BMP280;59767;51.344;12.362;2023-09-18T00:40:22;164228.13;;;21.50
71897;BMP280;59767;51.344;12.362;2023-09-18T00:43:27;164229.41;;;21.50
71897;BMP280;59767;51.344;12.362;2023-09-18T00:46:31;164220.22;;;21.47
71897;BMP280;59767;51.344;12.362;2023-09-18T00:49:38;164211.06;;;21.43
71897;BMP280;59767;51.344;12.362;2023-09-18T00:52:43;164208.38;;;21.42
71897;BMP280;59767;51.344;12.362;2023-09-18T00:55:48;164207.09;;;21.42
71897;BMP280;59767;51.344;12.362;2023-09-18T00:58:52;164199.19;;;21.39
71897;BMP280;59767;51.344;12.362;2023-09-18T01:01:58;164183.44;;;21.33
71897;BMP280;59767;51.344;12.362;2023-09-18T01:05:03;164176.88;;;21.30
71897;BMP280;59767;51.344;12.362;2023-09-18T01:08:07;164166.38;;;21.26
71897;BMP280;59767;51.344;12.362;2023-09-18T01:11:31;164166.38;;;21.26
71897;BMP280;59767;51.344;12.362;2023-09-18T01:14:51;164170.28;;;21.28
71897;BMP280;59767;51.344;12.362;2023-09-18T01:18:01;164170.28;;;21.28
71897;BMP280;59767;51.344;12.362;2023-09-18T01:21:07;164159.78;;;21.24
71897;BMP280;59767;51.344;12.362;2023-09-18T01:24:11;164161.13;;;21.24
71897;BMP280;59767;51.344;12.362;2023-09-18T01:27:18;164147.97;;;21.19
71897;BMP280;59767;51.344;12.362;2023-09-18T01:30:22;164141.38;;;21.17
71897;BMP280;59767;51.344;12.362;2023-09-18T01:33:29;164145.34;;;21.18
71897;BMP280;59767;51.344;12.362;2023-09-18T01:36:33;164136.09;;;21.15
71897;BMP280;59767;51.344;12.362;2023-09-18T01:39:38;164140.09;;;21.16
71897;BMP280;59767;51.344;12.362;2023-09-18T01:42:43;164116.41;;;21.07
71897;BMP280;59767;51.344;12.362;2023-09-18T01:45:47;164107.19;;;21.04
71897;BMP280;59767;51.344;12.362;2023-09-18T01:48:51;164098.03;;;21.00
71897;BMP280;59767;51.344;12.362;2023-09-18T01:51:57;164090.19;;;20.97
71897;BMP280;59767;51.344;12.362;2023-09-18T01:55:02;164098.03;;;21.00
71897;BMP280;59767;51.344;12.362;2023-09-18T01:58:08;164084.88;;;20.95
71897;BMP280;59767;51.344;12.362;2023-09-18T02:01:13;164070.44;;;20.90
71897;BMP280;59767;51.344;12.362;2023-09-18T02:04:19;164063.84;;;20.87
71897;BMP280;59767;51.344;12.362;2023-09-18T02:07:43;164052.03;;;20.83
71897;BMP280;59767;51.344;12.362;2023-09-18T02:10:47;164061.25;;;20.86
71897;BMP280;59767;51.344;12.362;2023-09-18T02:13:51;164080.97;;;20.94
71897;BMP280;59767;51.344;12.362;2023-09-18T02:16:55;164071.78;;;20.90
71897;BMP280;59767;51.344;12.362;2023-09-18T02:20:00;164057.28;;;20.85
71897;BMP280;59767;51.344;12.362;2023-09-18T02:23:08;164038.94;;;20.78
71897;BMP280;59767;51.344;12.362;2023-09-18T02:26:12;164017.91;;;20.70
71897;BMP280;59767;51.344;12.362;2023-09-18T02:29:16;164010.00;;;20.67
71897;BMP280;59767;51.344;12.362;2023-09-18T02:32:20;164017.91;;;20.70
71897;BMP280;59767;51.344;12.362;2023-09-18T02:35:25;163992.94;;;20.60
71897;BMP280;59767;51.344;12.362;2023-09-18T02:38:29;163983.72;;;20.57
71897;BMP280;59767;51.344;12.362;2023-09-18T02:41:36;163982.41;;;20.56
71897;BMP280;59767;51.344;12.362;2023-09-18T02:44:40;163982.41;;;20.56
71897;BMP280;59767;51.344;12.362;2023-09-18T02:47:44;163971.91;;;20.52
71897;BMP280;59767;51.344;12.362;2023-09-18T02:50:49;163950.88;;;20.44
71897;BMP280;59767;51.344;12.362;2023-09-18T02:53:53;163935.09;;;20.38
71897;BMP280;59767;51.344;12.362;2023-09-18T02:56:57;163912.75;;;20.30
71897;BMP280;59767;51.344;12.362;2023-09-18T03:00:02;163897.03;;;20.24
71897;BMP280;59767;51.344;12.362;2023-09-18T03:03:07;163881.25;;;20.18
71897;BMP280;59767;51.344;12.362;2023-09-18T03:06:12;163864.19;;;20.11
71897;BMP280;59767;51.344;12.362;2023-09-18T03:09:16;163858.91;;;20.09
71897;BMP280;59767;51.344;12.362;2023-09-18T03:12:22;163856.34;;;20.08
71897;BMP280;59767;51.344;12.362;2023-09-18T03:15:26;163855.00;;;20.08
71897;BMP280;59767;51.344;12.362;2023-09-18T03:18:30;163870.72;;;20.14
71897;BMP280;59767;51.344;12.362;2023-09-18T03:21:34;163862.88;;;20.11
71897;BMP280;59767;51.344;12.362;2023-09-18T03:24:39;163852.38;;;20.07
71897;BMP280;59767;51.344;12.362;2023-09-18T03:27:43;163826.06;;;19.97
71897;BMP280;59767;51.344;12.362;2023-09-18T03:30:48;163805.06;;;19.89
71897;BMP280;59767;51.344;12.362;2023-09-18T03:33:52;163795.88;;;19.85
71897;BMP280;59767;51.344;12.362;2023-09-18T03:36:56;163789.34;;;19.83
71897;BMP280;59767;51.344;12.362;2023-09-18T03:40:00;163773.56;;;19.77
71897;BMP280;59767;51.344;12.362;2023-09-18T03:43:07;163751.22;;;19.68
71897;BMP280;59767;51.344;12.362;2023-09-18T03:46:11;163742.03;;;19.65
71897;BMP280;59767;51.344;12.362;2023-09-18T03:49:15;163732.84;;;19.61
71897;BMP280;59767;51.344;12.362;2023-09-18T03:52:19;163727.59;;;19.59
71897;BMP280;59767;51.344;12.362;2023-09-18T03:55:24;163711.81;;;19.53
71897;BMP280;59767;51.344;12.362;2023-09-18T03:58:28;163713.09;;;19.54
71897;BMP280;59767;51.344;12.362;2023-09-18T04:01:32;163711.81;;;19.53
71897;BMP280;59767;51.344;12.362;2023-09-18T04:04:39;163710.53;;;19.53
71897;BMP280;59767;51.344;12.362;2023-09-18T04:07:44;163718.41;;;19.56
71897;BMP280;59767;51.344;12.362;2023-09-18T04:10:50;163719.69;;;19.56
71897;BMP280;59767;51.344;12.362;2023-09-18T04:13:54;163709.22;;;19.52
71897;BMP280;59767;51.344;12.362;2023-09-18T04:16:59;163694.72;;;19.47
71897;BMP280;59767;51.344;12.362;2023-09-18T04:20:04;163657.94;;;19.33
71897;BMP280;59767;51.344;12.362;2023-09-18T04:23:23;163640.91;;;19.27
71897;BMP280;59767;51.344;12.362;2023-09-18T04:26:28;163638.28;;;19.26
71897;BMP280;59767;51.344;12.362;2023-09-18T04:29:34;163638.28;;;19.26
71897;BMP280;59767;51.344;12.362;2023-09-18T04:32:40;163661.91;;;19.35
71897;BMP280;59767;51.344;12.362;2023-09-18T04:35:44;163654.03;;;19.32
71897;BMP280;59767;51.344;12.362;2023-09-18T04:38:48;163651.44;;;19.31
71897;BMP280;59767;51.344;12.362;2023-09-18T04:41:52;163654.03;;;19.32
71897;BMP280;59767;51.344;12.362;2023-09-18T04:44:56;163655.38;;;19.32
71897;BMP280;59767;51.344;12.362;2023-09-18T04:48:00;163671.09;;;19.38
71897;BMP280;59767;51.344;12.362;2023-09-18T04:51:05;163630.41;;;19.23
71897;BMP280;59767;51.344;12.362;2023-09-18T04:54:09;163626.47;;;19.21
71897;BMP280;59767;51.344;12.362;2023-09-18T04:57:13;163613.31;;;19.16
71897;BMP280;59767;51.344;12.362;2023-09-18T05:00:17;163598.91;;;19.11
71897;BMP280;59767;51.344;12.362;2023-09-18T05:03:23;163598.91;;;19.11
71897;BMP280;59767;51.344;12.362;2023-09-18T05:06:27;163580.50;;;19.04
71897;BMP280;59767;51.344;12.362;2023-09-18T05:09:32;163596.28;;;19.10
71897;BMP280;59767;51.344;12.362;2023-09-18T05:12:39;163583.13;;;19.05
71897;BMP280;59767;51.344;12.362;2023-09-18T05:15:44;163588.38;;;19.07
71897;BMP280;59767;51.344;12.362;2023-09-18T05:18:49;163583.13;;;19.05
71897;BMP280;59767;51.344;12.362;2023-09-18T05:21:54;163588.38;;;19.07
71897;BMP280;59767;51.344;12.362;2023-09-18T05:24:58;163588.38;;;19.07
71897;BMP280;59767;51.344;12.362;2023-09-18T05:28:02;163597.59;;;19.10
71897;BMP280;59767;51.344;12.362;2023-09-18T05:31:09;163601.53;;;19.12
71897;BMP280;59767;51.344;12.362;2023-09-18T05:34:13;163625.13;;;19.21
71897;BMP280;59767;51.344;12.362;2023-09-18T05:37:18;163630.41;;;19.23
71897;BMP280;59767;51.344;12.362;2023-09-18T05:40:22;163631.75;;;19.23
71897;BMP280;59767;51.344;12.362;2023-09-18T05:43:27;163663.25;;;19.35
71897;BMP280;59767;51.344;12.362;2023-09-18T05:46:31;163692.09;;;19.46
71897;BMP280;59767;51.344;12.362;2023-09-18T05:49:35;163711.81;;;19.53
71897;BMP280;59767;51.344;12.362;2023-09-18T05:52:39;163718.41;;;19.56
71897;BMP280;59767;51.344;12.362;2023-09-18T05:55:44;163735.47;;;19.62
71897;BMP280;59767;51.344;12.362;2023-09-18T05:58:48;163747.28;;;19.67
71897;BMP280;59767;51.344;12.362;2023-09-18T06:01:53;163761.69;;;19.72
71897;BMP280;59767;51.344;12.362;2023-09-18T06:04:59;163763.03;;;19.73
71897;BMP280;59767;51.344;12.362;2023-09-18T06:08:06;163765.66;;;19.74
71897;BMP280;59767;51.344;12.362;2023-09-18T06:11:10;163789.34;;;19.83
71897;BMP280;59767;51.344;12.362;2023-09-18T06:14:15;163790.56;;;19.83
71897;BMP280;59767;51.344;12.362;2023-09-18T06:17:19;163785.38;;;19.81
71897;BMP280;59767;51.344;12.362;2023-09-18T06:20:23;163793.25;;;19.84
71897;BMP280;59767;51.344;12.362;2023-09-18T06:23:27;163805.06;;;19.89
71897;BMP280;59767;51.344;12.362;2023-09-18T06:26:32;163812.91;;;19.92
71897;BMP280;59767;51.344;12.362;2023-09-18T06:29:36;163834.00;;;20.00
71897;BMP280;59767;51.344;12.362;2023-09-18T06:32:43;163852.38;;;20.07
71897;BMP280;59767;51.344;12.362;2023-09-18T06:35:47;163874.69;;;20.15
71897;BMP280;59767;51.344;12.362;2023-09-18T06:38:52;163903.56;;;20.26
71897;BMP280;59767;51.344;12.362;2023-09-18T06:41:57;163936.41;;;20.39
71897;BMP280;59767;51.344;12.362;2023-09-18T06:45:02;163958.75;;;20.47
71897;BMP280;59767;51.344;12.362;2023-09-18T06:48:11;163971.91;;;20.52
71897;BMP280;59767;51.344;12.362;2023-09-18T06:51:15;164003.41;;;20.64
71897;BMP280;59767;51.344;12.362;2023-09-18T06:54:24;164036.25;;;20.77
71897;BMP280;59767;51.344;12.362;2023-09-18T06:57:29;164070.44;;;20.90
71897;BMP280;59767;51.344;12.362;2023-09-18T07:00:33;164124.31;;;21.10
71897;BMP280;59767;51.344;12.362;2023-09-18T07:03:37;164216.31;;;21.45
71897;BMP280;59767;51.344;12.362;2023-09-18T07:06:44;164293.84;;;21.75
71897;BMP280;59767;51.344;12.362;2023-09-18T07:09:50;164341.13;;;21.93
71897;BMP280;59767;51.344;12.362;2023-09-18T07:13:08;164387.16;;;22.10
71897;BMP280;59767;51.344;12.362;2023-09-18T07:16:12;164397.69;;;22.14
71897;BMP280;59767;51.344;12.362;2023-09-18T07:19:17;164419.97;;;22.23
71897;BMP280;59767;51.344;12.362;2023-09-18T07:22:21;164412.09;;;22.20
71897;BMP280;59767;51.344;12.362;2023-09-18T07:25:25;164452.84;;;22.35
71897;BMP280;59767;51.344;12.362;2023-09-18T07:28:29;164469.94;;;22.42
71897;BMP280;59767;51.344;12.362;2023-09-18T07:31:34;164498.84;;;22.52
71897;BMP280;59767;51.344;12.362;2023-09-18T07:34:39;164543.63;;;22.69
71897;BMP280;59767;51.344;12.362;2023-09-18T07:37:44;164586.94;;;22.86
71897;BMP280;59767;51.344;12.362;2023-09-18T07:40:49;164614.63;;;22.96
71897;BMP280;59767;51.344;12.362;2023-09-18T07:43:54;164657.97;;;23.13
71897;BMP280;59767;51.344;12.362;2023-09-18T07:46:58;164698.75;;;23.28
71897;BMP280;59767;51.344;12.362;2023-09-18T07:50:02;164673.72;;;23.19
71897;BMP280;59767;51.344;12.362;2023-09-18T07:53:06;164717.16;;;23.35
71897;BMP280;59767;51.344;12.362;2023-09-18T07:56:11;164671.16;;;23.18
71897;BMP280;59767;51.344;12.362;2023-09-18T07:59:15;164665.84;;;23.16
71897;BMP280;59767;51.344;12.362;2023-09-18T08:02:19;164663.28;;;23.15
71897;BMP280;59767;51.344;12.362;2023-09-18T08:05:23;164639.59;;;23.06
71897;BMP280;59767;51.344;12.362;2023-09-18T08:08:27;164626.44;;;23.01
71897;BMP280;59767;51.344;12.362;2023-09-18T08:11:34;164626.44;;;23.01
71897;BMP280;59767;51.344;12.362;2023-09-18T08:14:39;164681.72;;;23.22
71897;BMP280;59767;51.344;12.362;2023-09-18T08:17:43;164725.06;;;23.38
71897;BMP280;59767;51.344;12.362;2023-09-18T08:20:48;164759.22;;;23.51
71897;BMP280;59767;51.344;12.362;2023-09-18T08:23:52;164784.25;;;23.61
71897;BMP280;59767;51.344;12.362;2023-09-18T08:26:56;164796.03;;;23.65
71897;BMP280;59767;51.344;12.362;2023-09-18T08:30:00;164796.03;;;23.65
71897;BMP280;59767;51.344;12.362;2023-09-18T08:33:05;164776.38;;;23.58
71897;BMP280;59767;51.344;12.362;2023-09-18T08:36:09;164777.66;;;23.58
71897;BMP280;59767;51.344;12.362;2023-09-18T08:39:13;164747.44;;;23.47
71897;BMP280;59767;51.344;12.362;2023-09-18T08:42:18;164752.69;;;23.49
71897;BMP280;59767;51.344;12.362;2023-09-18T08:49:00;164815.78;;;23.73
71897;BMP280;59767;51.344;12.362;2023-09-18T08:52:06;164865.75;;;23.92
71897;BMP280;59767;51.344;12.362;2023-09-18T08:55:10;164901.28;;;24.05
71897;BMP280;59767;51.344;12.362;2023-09-18T08:58:15;164947.34;;;24.23
71897;BMP280;59767;51.344;12.362;2023-09-18T09:01:23;165003.91;;;24.44
71897;BMP280;59767;51.344;12.362;2023-09-18T09:04:27;165013.13;;;24.48
71897;BMP280;59767;51.344;12.362;2023-09-18T09:07:31;165038.09;;;24.57
71897;BMP280;59767;51.344;12.362;2023-09-18T09:10:35;165026.25;;;24.53
71897;BMP280;59767;51.344;12.362;2023-09-18T09:13:40;165014.47;;;24.48
71897;BMP280;59767;51.344;12.362;2023-09-18T09:16:50;164989.41;;;24.39
71897;BMP280;59767;51.344;12.362;2023-09-18T09:20:08;164965.72;;;24.30
71897;BMP280;59767;51.344;12.362;2023-09-18T09:23:12;164939.47;;;24.20
71897;BMP280;59767;51.344;12.362;2023-09-18T09:26:17;164917.06;;;24.11
71897;BMP280;59767;51.344;12.362;2023-09-18T09:29:21;164885.53;;;23.99
71897;BMP280;59767;51.344;12.362;2023-09-18T09:32:29;164881.56;;;23.98
71897;BMP280;59767;51.344;12.362;2023-09-18T09:35:36;164889.44;;;24.01
71897;BMP280;59767;51.344;12.362;2023-09-18T09:38:40;164898.69;;;24.04
71897;BMP280;59767;51.344;12.362;2023-09-18T09:41:45;164926.28;;;24.15
71897;BMP280;59767;51.344;12.362;2023-09-18T09:45:04;164974.94;;;24.33
71897;BMP280;59767;51.344;12.362;2023-09-18T09:48:08;165028.88;;;24.54
71897;BMP280;59767;51.344;12.362;2023-09-18T09:51:17;165060.50;;;24.66
71897;BMP280;59767;51.344;12.362;2023-09-18T09:54:32;165060.50;;;24.66
71897;BMP280;59767;51.344;12.362;2023-09-18T09:57:48;165074.94;;;24.71
71897;BMP280;59767;51.344;12.362;2023-09-18T10:00:53;165094.72;;;24.79
71897;BMP280;59767;51.344;12.362;2023-09-18T10:04:04;165115.69;;;24.86
71897;BMP280;59767;51.344;12.362;2023-09-18T10:07:11;165113.13;;;24.86
71897;BMP280;59767;51.344;12.362;2023-09-18T10:10:15;165122.34;;;24.89
71897;BMP280;59767;51.344;12.362;2023-09-18T10:13:24;165113.13;;;24.86
71897;BMP280;59767;51.344;12.362;2023-09-18T10:16:31;165082.81;;;24.74
71897;BMP280;59767;51.344;12.362;2023-09-18T10:19:58;165068.41;;;24.69
71897;BMP280;59767;51.344;12.362;2023-09-18T10:26:56;165052.56;;;24.63
71897;BMP280;59767;51.344;12.362;2023-09-18T10:30:01;165056.53;;;24.64
71897;BMP280;59767;51.344;12.362;2023-09-18T10:33:09;165103.91;;;24.82
71897;BMP280;59767;51.344;12.362;2023-09-18T10:36:13;165156.56;;;25.02
71897;BMP280;59767;51.344;12.362;2023-09-18T10:39:20;165201.28;;;25.19
71897;BMP280;59767;51.344;12.362;2023-09-18T10:42:28;165278.88;;;25.48
71897;BMP280;59767;51.344;12.362;2023-09-18T10:45:34;165378.88;;;25.86
71897;BMP280;59767;51.344;12.362;2023-09-18T10:48:38;165460.50;;;26.17
71897;BMP280;59767;51.344;12.362;2023-09-18T10:51:46;165426.31;;;26.04
71897;BMP280;59767;51.344;12.362;2023-09-18T10:54:51;165413.13;;;25.99
71897;BMP280;59767;51.344;12.362;2023-09-18T10:57:57;165414.47;;;26.00
71897;BMP280;59767;51.344;12.362;2023-09-18T11:01:04;165428.91;;;26.05
71897;BMP280;59767;51.344;12.362;2023-09-18T11:04:08;165410.50;;;25.98
71897;BMP280;59767;51.344;12.362;2023-09-18T11:07:22;165390.78;;;25.91
71897;BMP280;59767;51.344;12.362;2023-09-18T11:10:26;165380.22;;;25.87
71897;BMP280;59767;51.344;12.362;2023-09-18T11:13:34;165336.81;;;25.70
71897;BMP280;59767;51.344;12.362;2023-09-18T11:16:38;165318.38;;;25.63
71897;BMP280;59767;51.344;12.362;2023-09-18T11:19:44;165327.59;;;25.67
71897;BMP280;59767;51.344;12.362;2023-09-18T11:22:55;165342.03;;;25.72
71897;BMP280;59767;51.344;12.362;2023-09-18T11:26:07;165321.00;;;25.64
71897;BMP280;59767;51.344;12.362;2023-09-18T11:29:20;165328.88;;;25.67
71897;BMP280;59767;51.344;12.362;2023-09-18T11:32:46;165348.69;;;25.75
71897;BMP280;59767;51.344;12.362;2023-09-18T11:35:51;165357.84;;;25.78
71897;BMP280;59767;51.344;12.362;2023-09-18T11:39:00;165373.69;;;25.84
71897;BMP280;59767;51.344;12.362;2023-09-18T11:42:17;165389.47;;;25.90
71897;BMP280;59767;51.344;12.362;2023-09-18T11:45:21;165401.25;;;25.95
71897;BMP280;59767;51.344;12.362;2023-09-18T11:48:27;165397.34;;;25.93
71897;BMP280;59767;51.344;12.362;2023-09-18T11:51:34;165393.38;;;25.92
71897;BMP280;59767;51.344;12.362;2023-09-18T11:54:39;165381.56;;;25.87
71897;BMP280;59767;51.344;12.362;2023-09-18T11:57:45;165344.72;;;25.73
71897;BMP280;59767;51.344;12.362;2023-09-18T12:00:52;165307.81;;;25.59
71897;BMP280;59767;51.344;12.362;2023-09-18T12:04:02;165267.03;;;25.44
71897;BMP280;59767;51.344;12.362;2023-09-18T12:07:11;165215.75;;;25.24
71897;BMP280;59767;51.344;12.362;2023-09-18T12:10:18;165180.19;;;25.11
71897;BMP280;59767;51.344;12.362;2023-09-18T12:13:26;165146.00;;;24.98
71897;BMP280;59767;51.344;12.362;2023-09-18T12:16:37;165149.91;;;24.99
71897;BMP280;59767;51.344;12.362;2023-09-18T12:19:53;165144.69;;;24.97
71897;BMP280;59767;51.344;12.362;2023-09-18T12:22:57;165144.69;;;24.97
71897;BMP280;59767;51.344;12.362;2023-09-18T12:26:01;165135.47;;;24.94
71897;BMP280;59767;51.344;12.362;2023-09-18T12:29:07;165113.13;;;24.86
71897;BMP280;59767;51.344;12.362;2023-09-18T12:32:12;165073.66;;;24.71
71897;BMP280;59767;51.344;12.362;2023-09-18T12:35:19;165051.28;;;24.62
71897;BMP280;59767;51.344;12.362;2023-09-18T12:38:23;165040.72;;;24.58
71897;BMP280;59767;51.344;12.362;2023-09-18T12:41:31;165023.69;;;24.52
71897;BMP280;59767;51.344;12.362;2023-09-18T12:44:36;165039.44;;;24.58
71897;BMP280;59767;51.344;12.362;2023-09-18T12:47:41;165073.66;;;24.71
71897;BMP280;59767;51.344;12.362;2023-09-18T12:50:51;165084.16;;;24.75
71897;BMP280;59767;51.344;12.362;2023-09-18T12:54:01;165115.69;;;24.86
71897;BMP280;59767;51.344;12.362;2023-09-18T12:57:10;165126.25;;;24.90
71897;BMP280;59767;51.344;12.362;2023-09-18T13:00:15;165121.00;;;24.88
71897;BMP280;59767;51.344;12.362;2023-09-18T13:03:23;165107.81;;;24.83
71897;BMP280;59767;51.344;12.362;2023-09-18T13:06:28;165098.63;;;24.80
71897;BMP280;59767;51.344;12.362;2023-09-18T13:09:32;165090.69;;;24.77
71897;BMP280;59767;51.344;12.362;2023-09-18T13:12:46;165088.06;;;24.76
71897;BMP280;59767;51.344;12.362;2023-09-18T13:15:50;165107.81;;;24.83
71897;BMP280;59767;51.344;12.362;2023-09-18T13:19:04;165092.03;;;24.78
71897;BMP280;59767;51.344;12.362;2023-09-18T13:22:08;165076.28;;;24.72
71897;BMP280;59767;51.344;12.362;2023-09-18T13:25:19;165081.53;;;24.74
71897;BMP280;59767;51.344;12.362;2023-09-18T13:28:24;165052.56;;;24.63
71897;BMP280;59767;51.344;12.362;2023-09-18T13:31:28;165045.97;;;24.60
71897;BMP280;59767;51.344;12.362;2023-09-18T13:34:33;165047.31;;;24.61
71897;BMP280;59767;51.344;12.362;2023-09-18T13:37:38;165034.13;;;24.56
71897;BMP280;59767;51.344;12.362;2023-09-18T13:40:45;165036.75;;;24.57
71897;BMP280;59767;51.344;12.362;2023-09-18T13:43:49;165044.69;;;24.60
71897;BMP280;59767;51.344;12.362;2023-09-18T13:46:58;165055.22;;;24.64
71897;BMP280;59767;51.344;12.362;2023-09-18T13:50:04;165045.97;;;24.60
71897;BMP280;59767;51.344;12.362;2023-09-18T13:53:09;164994.72;;;24.41
71897;BMP280;59767;51.344;12.362;2023-09-18T13:56:13;164976.28;;;24.34
71897;BMP280;59767;51.344;12.362;2023-09-18T13:59:18;164939.47;;;24.20
71897;BMP280;59767;51.344;12.362;2023-09-18T14:02:21;164934.16;;;24.18
71897;BMP280;59767;51.344;12.362;2023-09-18T14:05:26;164940.75;;;24.20
71897;BMP280;59767;51.344;12.362;2023-09-18T14:08:32;164894.72;;;24.03
71897;BMP280;59767;51.344;12.362;2023-09-18T14:11:37;164867.09;;;23.92
71897;BMP280;59767;51.344;12.362;2023-09-18T14:14:43;164813.19;;;23.72
71897;BMP280;59767;51.344;12.362;2023-09-18T14:17:47;164790.81;;;23.63
71897;BMP280;59767;51.344;12.362;2023-09-18T14:20:53;164755.31;;;23.50
71897;BMP280;59767;51.344;12.362;2023-09-18T14:23:57;164709.28;;;23.32
71897;BMP280;59767;51.344;12.362;2023-09-18T14:27:02;164671.16;;;23.18
71897;BMP280;59767;51.344;12.362;2023-09-18T14:30:07;164663.28;;;23.15
71897;BMP280;59767;51.344;12.362;2023-09-18T14:33:12;164647.47;;;23.09
71897;BMP280;59767;51.344;12.362;2023-09-18T14:36:18;164622.50;;;22.99
71897;BMP280;59767;51.344;12.362;2023-09-18T14:39:22;164635.63;;;23.04
71897;BMP280;59767;51.344;12.362;2023-09-18T14:42:27;164571.19;;;22.80
71897;BMP280;59767;51.344;12.362;2023-09-18T14:45:31;164568.56;;;22.79
71897;BMP280;59767;51.344;12.362;2023-09-18T14:48:36;164552.84;;;22.73
71897;BMP280;59767;51.344;12.362;2023-09-18T14:51:40;164537.03;;;22.67
71897;BMP280;59767;51.344;12.362;2023-09-18T14:54:44;164527.81;;;22.63
71897;BMP280;59767;51.344;12.362;2023-09-18T14:57:48;164492.31;;;22.50
71897;BMP280;59767;51.344;12.362;2023-09-18T15:00:58;164480.47;;;22.46
71897;BMP280;59767;51.344;12.362;2023-09-18T15:04:01;164477.84;;;22.45
71897;BMP280;59767;51.344;12.362;2023-09-18T15:07:06;164455.53;;;22.36
71897;BMP280;59767;51.344;12.362;2023-09-18T15:10:11;164429.25;;;22.26
71897;BMP280;59767;51.344;12.362;2023-09-18T15:13:15;164393.75;;;22.13
71897;BMP280;59767;51.344;12.362;2023-09-18T15:16:19;164418.75;;;22.22
71897;BMP280;59767;51.344;12.362;2023-09-18T15:19:23;164412.09;;;22.20
71897;BMP280;59767;51.344;12.362;2023-09-18T15:22:27;164399.00;;;22.15
71897;BMP280;59767;51.344;12.362;2023-09-18T15:25:32;164371.38;;;22.04
71897;BMP280;59767;51.344;12.362;2023-09-18T15:28:39;164376.66;;;22.06
71897;BMP280;59767;51.344;12.362;2023-09-18T15:31:44;164363.50;;;22.01
71897;BMP280;59767;51.344;12.362;2023-09-18T15:34:50;164380.56;;;22.08
71897;BMP280;59767;51.344;12.362;2023-09-18T15:37:54;164379.28;;;22.07
71897;BMP280;59767;51.344;12.362;2023-09-18T15:41:01;164401.63;;;22.16
71897;BMP280;59767;51.344;12.362;2023-09-18T15:44:05;164380.56;;;22.08
71897;BMP280;59767;51.344;12.362;2023-09-18T15:47:11;164384.53;;;22.09
71897;BMP280;59767;51.344;12.362;2023-09-18T15:50:15;164379.28;;;22.07
71897;BMP280;59767;51.344;12.362;2023-09-18T15:53:19;164374.00;;;22.05
71897;BMP280;59767;51.344;12.362;2023-09-18T15:56:23;164375.31;;;22.06
71897;BMP280;59767;51.344;12.362;2023-09-18T15:59:28;164360.88;;;22.00
71897;BMP280;59767;51.344;12.362;2023-09-18T16:02:33;164326.72;;;21.87
71897;BMP280;59767;51.344;12.362;2023-09-18T16:05:38;164326.72;;;21.87
71897;BMP280;59767;51.344;12.362;2023-09-18T16:08:42;164314.88;;;21.83
71897;BMP280;59767;51.344;12.362;2023-09-18T16:11:46;164291.19;;;21.74
71897;BMP280;59767;51.344;12.362;2023-09-18T16:14:52;164293.84;;;21.75
71897;BMP280;59767;51.344;12.362;2023-09-18T16:17:56;164288.59;;;21.73
71897;BMP280;59767;51.344;12.362;2023-09-18T16:21:00;164274.09;;;21.67
71897;BMP280;59767;51.344;12.362;2023-09-18T16:24:06;164267.56;;;21.65
71897;BMP280;59767;51.344;12.362;2023-09-18T16:27:11;164272.81;;;21.67
71897;BMP280;59767;51.344;12.362;2023-09-18T16:30:17;164263.63;;;21.63
71897;BMP280;59767;51.344;12.362;2023-09-18T16:33:21;164268.91;;;21.65
71897;BMP280;59767;51.344;12.362;2023-09-18T16:36:27;164255.75;;;21.60
71897;BMP280;59767;51.344;12.362;2023-09-18T16:39:32;164266.22;;;21.64
71897;BMP280;59767;51.344;12.362;2023-09-18T16:42:36;164291.19;;;21.74
71897;BMP280;59767;51.344;12.362;2023-09-18T16:45:40;164303.00;;;21.78
71897;BMP280;59767;51.344;12.362;2023-09-18T16:48:46;164276.78;;;21.68
71897;BMP280;59767;51.344;12.362;2023-09-18T16:51:50;164239.97;;;21.54
71897;BMP280;59767;51.344;12.362;2023-09-18T16:54:56;164250.44;;;21.58
71897;BMP280;59767;51.344;12.362;2023-09-18T16:58:03;164246.53;;;21.57
71897;BMP280;59767;51.344;12.362;2023-09-18T17:01:07;164242.56;;;21.55
71897;BMP280;59767;51.344;12.362;2023-09-18T17:04:11;164243.91;;;21.56
71897;BMP280;59767;51.344;12.362;2023-09-18T17:07:18;164226.84;;;21.49
71897;BMP280;59767;51.344;12.362;2023-09-18T17:10:22;164226.84;;;21.49
71897;BMP280;59767;51.344;12.362;2023-09-18T17:13:26;164245.19;;;21.56
71897;BMP280;59767;51.344;12.362;2023-09-18T17:16:31;164208.38;;;21.42
71897;BMP280;59767;51.344;12.362;2023-09-18T17:19:40;164175.56;;;21.30
71897;BMP280;59767;51.344;12.362;2023-09-18T17:22:44;164186.13;;;21.34
71897;BMP280;59767;51.344;12.362;2023-09-18T17:25:48;164169.00;;;21.27